createdAt,value
2019-02-14T00:00:39.382Z,14.47
2019-02-14T00:03:08.270Z,13.43
2019-02-14T00:05:36.855Z,15.97
2019-02-14T00:08:05.438Z,13.03
2019-02-14T00:10:34.025Z,12.43
2019-02-14T00:13:02.607Z,14.80
2019-02-14T00:15:31.194Z,17.70
2019-02-14T00:18:00.439Z,14.03
2019-02-14T00:20:29.021Z,16.80
2019-02-14T00:22:57.609Z,13.77
2019-02-14T00:25:26.227Z,14.47
2019-02-14T00:27:54.815Z,12.67
2019-02-14T00:30:23.392Z,18.50
2019-02-14T00:32:51.979Z,13.10
2019-02-14T00:35:25.198Z,14.00
2019-02-14T00:37:51.663Z,13.80
2019-02-14T00:40:20.248Z,11.50
2019-02-14T00:42:48.905Z,10.83
2019-02-14T00:45:17.569Z,11.07
2019-02-14T00:47:46.167Z,12.17
2019-02-14T00:50:14.779Z,13.03
2019-02-14T00:52:43.369Z,13.93
2019-02-14T00:55:12.540Z,18.98
2019-02-14T00:57:41.124Z,13.70
2019-02-14T01:00:11.516Z,13.38
2019-02-14T01:02:40.151Z,16.43
2019-02-14T01:05:10.123Z,12.45
2019-02-14T01:07:38.903Z,14.47
2019-02-14T01:10:07.785Z,15.87
2019-02-14T01:12:36.444Z,13.63
2019-02-14T01:15:09.071Z,14.83
2019-02-14T01:17:37.655Z,20.20
2019-02-14T01:20:07.136Z,15.17
2019-02-14T01:22:35.772Z,18.87
2019-02-14T01:25:05.061Z,24.93
2019-02-14T01:27:33.645Z,11.73
2019-02-14T01:30:02.228Z,12.27
2019-02-14T01:32:30.833Z,15.90
2019-02-14T01:34:59.476Z,15.37
2019-02-14T01:37:28.056Z,15.17
2019-02-14T01:39:58.622Z,12.03
2019-02-14T01:42:27.204Z,16.80
2019-02-14T01:44:55.790Z,16.50
2019-02-14T01:47:24.429Z,14.27
2019-02-14T01:49:53.060Z,14.90
2019-02-14T01:52:21.984Z,13.10
2019-02-14T01:54:50.607Z,10.47
2019-02-14T01:57:19.196Z,11.60
2019-02-14T01:59:47.774Z,17.07
2019-02-14T02:02:16.360Z,14.55
2019-02-14T02:04:44.950Z,14.13
2019-02-14T02:07:13.548Z,11.65
2019-02-14T02:09:42.144Z,12.70
2019-02-14T02:12:10.995Z,12.63
2019-02-14T02:14:39.680Z,13.10
2019-02-14T02:17:08.271Z,12.97
2019-02-14T02:19:36.861Z,12.53
2019-02-14T02:22:05.455Z,12.43
2019-02-14T02:24:34.035Z,13.53
2019-02-14T02:27:02.672Z,14.17
2019-02-14T02:29:31.255Z,17.73
2019-02-14T02:31:59.916Z,12.50
2019-02-14T02:34:28.566Z,19.67
2019-02-14T02:36:57.149Z,12.30
2019-02-14T02:39:25.746Z,13.90
2019-02-14T02:41:54.333Z,13.13
2019-02-14T02:44:22.922Z,13.23
2019-02-14T02:46:51.511Z,12.83
2019-02-14T02:49:20.102Z,14.07
2019-02-14T02:51:48.717Z,11.27
2019-02-14T02:54:17.350Z,13.13
2019-02-14T02:56:46.016Z,12.60
2019-02-14T02:59:14.603Z,12.70
2019-02-14T03:01:43.191Z,10.00
2019-02-14T03:04:11.778Z,11.77
2019-02-14T03:06:40.370Z,10.77
2019-02-14T03:09:09.522Z,11.63
2019-02-14T03:11:38.108Z,12.53
2019-02-14T03:14:06.695Z,10.43
2019-02-14T03:16:35.384Z,12.73
2019-02-14T03:19:03.970Z,10.40
2019-02-14T03:21:32.560Z,12.33
2019-02-14T03:24:01.143Z,7.83
2019-02-14T03:26:29.743Z,9.23
2019-02-14T03:28:58.332Z,10.33
2019-02-14T03:31:26.960Z,8.55
2019-02-14T03:33:55.533Z,9.97
2019-02-14T03:36:24.192Z,10.38
2019-02-14T03:38:52.782Z,12.67
2019-02-14T03:41:21.367Z,13.18
2019-02-14T03:43:49.950Z,11.83
2019-02-14T03:46:18.533Z,9.50
2019-02-14T03:48:47.113Z,9.20
2019-02-14T03:51:15.700Z,9.25
2019-02-14T03:53:44.285Z,12.00
2019-02-14T03:56:12.925Z,12.17
2019-02-14T03:58:41.551Z,10.17
2019-02-14T04:01:11.015Z,14.70
2019-02-14T04:03:39.599Z,10.35
2019-02-14T04:06:08.442Z,7.05
2019-02-14T04:08:37.026Z,10.07
2019-02-14T04:11:05.613Z,8.67
2019-02-14T04:13:34.191Z,10.33
2019-02-14T04:16:04.462Z,11.57
2019-02-14T04:18:33.462Z,13.43
2019-02-14T04:21:02.044Z,8.83
2019-02-14T04:23:30.660Z,9.63
2019-02-14T04:25:59.243Z,9.00
2019-02-14T04:28:27.832Z,10.90
2019-02-14T04:30:56.422Z,13.80
2019-02-14T04:33:25.016Z,12.07
2019-02-14T04:35:53.643Z,10.43
2019-02-14T04:38:22.244Z,13.98
2019-02-14T04:40:50.837Z,11.73
2019-02-14T04:43:19.420Z,12.00
2019-02-14T04:45:48.014Z,11.97
2019-02-14T04:48:16.607Z,10.70
2019-02-14T04:50:45.197Z,14.27
2019-02-14T04:53:13.787Z,10.55
2019-02-14T04:55:42.375Z,11.47
2019-02-14T04:58:12.112Z,11.00
2019-02-14T05:00:40.841Z,9.93
2019-02-14T05:03:10.615Z,11.30
2019-02-14T05:05:39.284Z,9.70
2019-02-14T05:08:08.775Z,10.38
2019-02-14T05:10:37.356Z,9.00
2019-02-14T05:13:05.938Z,7.90
2019-02-14T05:15:34.531Z,10.73
2019-02-14T05:18:03.112Z,8.00
2019-02-14T05:20:31.692Z,9.17
2019-02-14T05:23:00.278Z,6.93
2019-02-14T05:25:28.861Z,7.73
2019-02-14T05:27:57.443Z,8.60
2019-02-14T05:30:26.030Z,6.37
2019-02-14T05:32:54.612Z,7.87
2019-02-14T05:35:23.202Z,9.00
2019-02-14T05:37:51.789Z,8.30
2019-02-14T05:40:20.407Z,9.10
2019-02-14T05:42:49.068Z,9.70
2019-02-14T05:45:17.962Z,9.08
2019-02-14T05:47:46.570Z,6.83
2019-02-14T05:50:15.256Z,7.97
2019-02-14T05:52:43.843Z,8.47
2019-02-14T05:55:13.304Z,7.00
2019-02-14T05:57:41.895Z,7.43
2019-02-14T06:00:16.492Z,8.00
2019-02-14T06:02:45.082Z,7.93
2019-02-14T06:05:13.719Z,9.37
2019-02-14T06:07:42.368Z,7.93
2019-02-14T06:10:11.947Z,12.70
2019-02-14T06:12:40.539Z,8.10
2019-02-14T06:15:11.571Z,9.68
2019-02-14T06:17:40.162Z,6.90
2019-02-14T06:20:12.718Z,6.35
2019-02-14T06:22:41.300Z,8.07
2019-02-14T06:25:11.825Z,8.05
2019-02-14T06:27:40.424Z,7.43
2019-02-14T06:30:12.116Z,5.20
2019-02-14T06:32:40.703Z,8.57
2019-02-14T06:35:10.730Z,10.93
2019-02-14T06:37:39.313Z,8.53
2019-02-14T06:40:13.868Z,9.75
2019-02-14T06:42:42.454Z,8.47
2019-02-14T06:45:13.688Z,7.83
2019-02-14T06:47:42.276Z,8.53
2019-02-14T06:50:11.717Z,7.47
2019-02-14T06:52:40.525Z,8.07
2019-02-14T06:55:09.828Z,7.93
2019-02-14T06:57:38.413Z,7.03
2019-02-14T07:00:10.117Z,7.47
2019-02-14T07:02:38.705Z,6.07
2019-02-14T07:05:09.230Z,9.53
2019-02-14T07:07:37.816Z,6.70
2019-02-14T07:10:08.796Z,8.90
2019-02-14T07:12:37.428Z,7.00
2019-02-14T07:15:13.790Z,9.77
2019-02-14T07:17:42.369Z,6.60
2019-02-14T07:20:16.589Z,4.40
2019-02-14T07:22:45.178Z,6.35
2019-02-14T07:25:13.782Z,8.77
2019-02-14T07:27:42.367Z,8.30
2019-02-14T07:30:15.014Z,6.95
2019-02-14T07:32:43.599Z,8.20
2019-02-14T07:35:12.581Z,8.58
2019-02-14T07:37:41.169Z,9.40
2019-02-14T07:40:12.253Z,10.70
2019-02-14T07:42:40.846Z,12.93
2019-02-14T07:45:15.061Z,13.48
2019-02-14T07:47:43.642Z,15.10
2019-02-14T07:50:13.917Z,14.87
2019-02-14T07:52:42.503Z,15.97
2019-02-14T07:55:13.626Z,15.27
2019-02-14T07:57:42.278Z,17.90
2019-02-14T08:00:19.434Z,15.37
2019-02-14T08:02:48.012Z,15.57
2019-02-14T08:05:16.655Z,15.90
2019-02-14T08:07:45.244Z,12.80
2019-02-14T08:10:18.846Z,15.03
2019-02-14T08:12:47.427Z,15.93
2019-02-14T08:15:16.012Z,20.50
2019-02-14T08:17:44.635Z,20.30
2019-02-14T08:20:18.011Z,15.00
2019-02-14T08:22:46.590Z,16.67
2019-02-14T08:25:15.233Z,15.10
2019-02-14T08:27:43.812Z,12.40
2019-02-14T08:30:14.831Z,14.93
2019-02-14T08:32:43.464Z,17.60
2019-02-14T08:35:13.016Z,15.30
2019-02-14T08:37:45.547Z,20.73
2019-02-14T08:40:15.280Z,15.48
2019-02-14T08:42:43.866Z,16.50
2019-02-14T08:45:13.071Z,15.90
2019-02-14T08:47:41.655Z,12.33
2019-02-14T08:50:12.657Z,15.95
2019-02-14T08:52:41.242Z,12.43
2019-02-14T08:55:10.414Z,13.60
2019-02-14T08:57:38.992Z,16.27
2019-02-14T09:00:13.001Z,13.27
2019-02-14T09:02:41.608Z,14.60
2019-02-14T09:05:10.416Z,14.73
2019-02-14T09:07:39.008Z,23.53
2019-02-14T09:10:15.553Z,20.77
2019-02-14T09:12:44.145Z,11.67
2019-02-14T09:15:14.381Z,12.53
2019-02-14T09:17:42.964Z,17.27
2019-02-14T09:20:15.368Z,13.20
2019-02-14T09:22:43.992Z,12.37
2019-02-14T09:25:13.096Z,15.15
2019-02-14T09:27:41.684Z,10.40
2019-02-14T09:30:15.406Z,14.33
2019-02-14T09:32:44.124Z,10.40
2019-02-14T09:35:12.699Z,11.50
2019-02-14T09:37:41.276Z,13.23
2019-02-14T09:40:13.288Z,14.05
2019-02-14T09:42:41.870Z,7.80
2019-02-14T09:45:12.806Z,11.57
2019-02-14T09:47:41.391Z,8.17
2019-02-14T09:50:12.694Z,8.48
2019-02-14T09:52:41.883Z,11.80
2019-02-14T09:55:14.286Z,10.72
2019-02-14T09:57:42.867Z,13.60
2019-02-14T10:00:14.891Z,13.90
2019-02-14T10:02:43.476Z,18.50
2019-02-14T10:05:13.519Z,13.32
2019-02-14T10:07:42.111Z,15.43
2019-02-14T10:10:14.167Z,17.77
2019-02-14T10:12:42.751Z,17.50
2019-02-14T10:15:12.034Z,16.07
2019-02-14T10:17:40.625Z,15.97
2019-02-14T10:20:12.328Z,14.47
2019-02-14T10:22:40.912Z,10.57
2019-02-14T10:25:10.279Z,14.33
2019-02-14T10:27:38.977Z,15.13
2019-02-14T10:30:11.385Z,15.10
2019-02-14T10:32:39.971Z,18.73
2019-02-14T10:35:09.013Z,15.93
2019-02-14T10:37:37.586Z,17.73
2019-02-14T10:40:09.234Z,19.63
2019-02-14T10:42:37.818Z,15.33
2019-02-14T10:45:09.368Z,15.20
2019-02-14T10:47:37.954Z,10.27
2019-02-14T10:50:08.636Z,20.43
2019-02-14T10:52:37.219Z,19.30
2019-02-14T10:55:08.765Z,13.37
2019-02-14T10:57:37.388Z,14.33
2019-02-14T11:00:11.473Z,14.90
2019-02-14T11:02:40.055Z,15.53
2019-02-14T11:05:08.937Z,13.53
2019-02-14T11:07:37.526Z,12.43
2019-02-14T11:10:09.474Z,19.10
2019-02-14T11:12:38.064Z,14.80
2019-02-14T11:15:09.509Z,14.57
2019-02-14T11:17:38.095Z,12.57
2019-02-14T11:20:09.279Z,18.20
2019-02-14T11:22:37.866Z,20.70
2019-02-14T11:25:09.598Z,21.77
2019-02-14T11:27:38.180Z,14.83
2019-02-14T11:30:09.985Z,17.42
2019-02-14T11:32:38.574Z,22.93
2019-02-14T11:35:09.482Z,16.17
2019-02-14T11:37:38.062Z,15.87
2019-02-14T11:40:14.723Z,17.40
2019-02-14T11:42:43.308Z,13.83
2019-02-14T11:45:23.936Z,20.95
2019-02-14T11:47:52.528Z,15.83
2019-02-14T11:50:21.117Z,21.47
2019-02-14T11:52:49.727Z,17.13
2019-02-14T11:55:18.372Z,17.77
2019-02-14T11:57:46.954Z,23.00
2019-02-14T12:00:28.017Z,21.73
2019-02-14T12:02:56.718Z,20.87
2019-02-14T12:05:25.377Z,26.27
2019-02-14T12:07:53.967Z,22.30
2019-02-14T12:10:22.551Z,18.77
2019-02-14T12:12:51.136Z,20.13
2019-02-14T12:15:19.735Z,25.90
2019-02-14T12:17:48.326Z,22.87
2019-02-14T12:20:16.923Z,22.73
2019-02-14T12:22:47.085Z,24.87
2019-02-14T12:25:28.077Z,24.02
2019-02-14T12:27:56.665Z,22.17
2019-02-14T12:30:25.650Z,22.45
2019-02-14T12:32:54.250Z,22.10
2019-02-14T12:35:22.892Z,25.87
2019-02-14T12:37:51.475Z,22.30
2019-02-14T12:40:20.063Z,22.30
2019-02-14T12:42:48.650Z,25.63
2019-02-14T12:45:26.092Z,25.70
2019-02-14T12:47:54.891Z,24.23
2019-02-14T12:50:23.483Z,29.07
2019-02-14T12:52:52.068Z,23.53
2019-02-14T12:55:20.658Z,25.77
2019-02-14T12:57:49.251Z,28.13
2019-02-14T13:00:25.041Z,27.03
2019-02-14T13:02:53.625Z,25.73
2019-02-14T13:05:22.250Z,28.30
2019-02-14T13:07:50.884Z,24.67
2019-02-14T13:10:19.773Z,25.90
2019-02-14T13:12:48.356Z,27.23
2019-02-14T13:15:25.537Z,31.30
2019-02-14T13:17:54.133Z,23.32
2019-02-14T13:20:22.736Z,28.80
2019-02-14T13:22:51.339Z,25.77
2019-02-14T13:25:19.930Z,25.70
2019-02-14T13:27:48.526Z,25.13
2019-02-14T13:30:26.907Z,26.55
2019-02-14T13:32:55.498Z,25.30
2019-02-14T13:35:24.109Z,20.73
2019-02-14T13:37:52.698Z,26.70
2019-02-14T13:40:21.318Z,24.73
2019-02-14T13:42:49.911Z,26.17
2019-02-14T13:45:23.702Z,23.73
2019-02-14T13:47:52.301Z,26.13
2019-02-14T13:50:20.886Z,25.05
2019-02-14T13:52:49.478Z,29.57
2019-02-14T13:55:18.096Z,27.03
2019-02-14T13:57:46.684Z,26.13
2019-02-14T14:00:27.044Z,24.63
2019-02-14T14:02:55.648Z,24.33
2019-02-14T14:05:24.237Z,25.93
2019-02-14T14:07:52.837Z,27.07
2019-02-14T14:10:21.525Z,25.88
2019-02-14T14:12:50.122Z,22.80
2019-02-14T14:15:18.738Z,26.37
2019-02-14T14:17:47.329Z,25.47
2019-02-14T14:20:15.923Z,31.75
2019-02-14T14:22:44.520Z,24.93
2019-02-14T14:25:13.112Z,20.20
2019-02-14T14:27:41.704Z,26.80
2019-02-14T14:30:12.678Z,26.40
2019-02-14T14:32:41.275Z,26.53
2019-02-14T14:35:11.385Z,23.10
2019-02-14T14:37:40.086Z,25.43
2019-02-14T14:40:15.157Z,24.07
2019-02-14T14:42:51.097Z,25.53
2019-02-14T14:45:37.995Z,26.40
2019-02-14T14:48:08.589Z,24.25
2019-02-14T14:50:37.184Z,30.33
2019-02-14T14:53:07.521Z,22.40
2019-02-14T14:55:36.263Z,24.50
2019-02-14T14:58:04.848Z,22.60
2019-02-14T15:00:35.015Z,23.23
2019-02-14T15:03:03.610Z,24.17
2019-02-14T15:05:32.202Z,25.10
2019-02-14T15:08:00.801Z,27.63
2019-02-14T15:10:29.395Z,24.20
2019-02-14T15:12:57.982Z,21.50
2019-02-14T15:15:26.709Z,28.00
2019-02-14T15:17:55.302Z,22.00
2019-02-14T15:20:23.893Z,23.30
2019-02-14T15:22:52.487Z,27.40
2019-02-14T15:25:21.080Z,23.97
2019-02-14T15:27:49.673Z,28.27
2019-02-14T15:30:18.266Z,21.25
2019-02-14T15:32:46.855Z,24.67
2019-02-14T15:35:15.445Z,22.00
2019-02-14T15:37:46.616Z,22.65
2019-02-14T15:40:14.351Z,20.97
2019-02-14T15:42:42.966Z,25.40
2019-02-14T15:45:12.476Z,20.08
2019-02-14T15:47:41.056Z,19.47
2019-02-14T15:50:10.776Z,26.64
2019-02-14T15:52:39.367Z,24.90
2019-02-14T15:55:09.127Z,20.42
2019-02-14T15:57:37.718Z,23.77
2019-02-14T16:00:10.777Z,19.57
2019-02-14T16:02:39.564Z,19.07
2019-02-14T16:05:09.060Z,23.54
2019-02-14T16:07:39.510Z,19.20
2019-02-14T16:10:17.580Z,22.73
2019-02-14T16:12:41.174Z,24.90
2019-02-14T16:15:10.668Z,17.44
2019-02-14T16:17:39.252Z,18.73
2019-02-14T16:20:09.590Z,17.76
2019-02-14T16:22:40.189Z,20.95
2019-02-14T16:25:09.334Z,18.65
2019-02-14T16:27:37.933Z,19.25
2019-02-14T16:30:09.608Z,20.70
2019-02-14T16:32:38.229Z,17.92
2019-02-14T16:35:07.725Z,17.93
2019-02-14T16:37:36.314Z,19.83
2019-02-14T16:40:07.011Z,17.73
2019-02-14T16:42:35.598Z,21.20
2019-02-14T16:45:05.085Z,25.63
2019-02-14T16:47:34.102Z,15.70
2019-02-14T16:50:02.691Z,15.13
2019-02-14T16:52:31.280Z,21.30
2019-02-14T16:54:59.896Z,15.10
2019-02-14T16:57:28.498Z,24.00
2019-02-14T16:59:57.086Z,19.57
2019-02-14T17:02:25.661Z,16.47
2019-02-14T17:04:54.238Z,17.70
2019-02-14T17:07:22.853Z,16.27
2019-02-14T17:09:51.440Z,14.33
2019-02-14T17:12:20.023Z,14.43
2019-02-14T17:14:48.672Z,16.53
2019-02-14T17:17:17.264Z,12.45
2019-02-14T17:19:45.929Z,22.30
2019-02-14T17:22:32.522Z,15.95
2019-02-14T17:25:01.132Z,16.57
2019-02-14T17:27:32.579Z,20.77
2019-02-14T17:30:04.281Z,17.33
2019-02-14T17:32:33.956Z,17.93
2019-02-14T17:35:02.752Z,16.80
2019-02-14T17:37:31.337Z,21.53
2019-02-14T17:40:00.098Z,18.17
2019-02-14T17:45:45.859Z,20.07
2019-02-14T17:48:14.438Z,19.93
2019-02-14T17:50:43.115Z,25.93
2019-02-14T17:53:13.782Z,20.02
2019-02-14T17:55:42.409Z,17.50
2019-02-14T17:58:11.432Z,18.90
2019-02-14T18:00:41.588Z,20.17
2019-02-14T18:03:12.305Z,20.43
2019-02-14T18:05:41.012Z,22.20
2019-02-14T18:08:15.675Z,21.33
2019-02-14T18:10:55.699Z,21.40
2019-02-14T18:13:24.287Z,19.50
2019-02-14T18:15:52.902Z,22.73
2019-02-14T18:18:21.493Z,23.50
2019-02-14T18:21:45.509Z,21.27
2019-02-14T18:24:14.134Z,21.50
2019-02-14T18:30:15.539Z,23.53
2019-02-14T18:43:52.261Z,21.70
2019-02-14T18:46:26.420Z,23.22
2019-02-14T18:48:56.687Z,22.80
2019-02-14T18:51:25.284Z,24.03
2019-02-14T18:53:53.870Z,20.37
2019-02-14T18:56:22.531Z,21.87
2019-02-14T18:58:51.236Z,21.97
2019-02-14T19:01:19.820Z,19.17
2019-02-14T19:03:48.412Z,18.80
2019-02-14T19:06:17.142Z,22.65
2019-02-14T19:08:45.715Z,24.97
2019-02-14T19:11:15.428Z,19.23
2019-02-14T19:13:44.217Z,19.57
2019-02-14T19:16:12.952Z,22.60
2019-02-14T19:18:41.541Z,25.33
2019-02-14T19:21:10.139Z,18.90
2019-02-14T19:23:38.724Z,21.70
2019-02-14T19:26:07.923Z,22.83
2019-02-14T19:28:36.559Z,27.97
2019-02-14T19:31:05.159Z,22.23
2019-02-14T19:33:33.833Z,23.03
2019-02-14T19:36:02.557Z,25.40
2019-02-14T19:38:31.186Z,24.20
2019-02-14T19:40:59.778Z,25.00
2019-02-14T19:43:28.469Z,27.33
2019-02-14T19:45:57.101Z,30.90
2019-02-14T19:48:25.693Z,26.63
2019-02-14T19:50:54.292Z,25.33
2019-02-14T19:53:22.888Z,24.97
2019-02-14T19:55:51.479Z,22.87
2019-02-14T19:58:20.070Z,27.07
2019-02-14T20:00:48.690Z,23.13
2019-02-14T20:03:17.287Z,22.70
2019-02-14T20:05:45.875Z,26.47
2019-02-14T20:08:14.463Z,25.27
2019-02-14T20:10:43.052Z,27.57
2019-02-14T20:13:12.293Z,23.90
2019-02-14T20:15:40.896Z,22.60
2019-02-14T20:18:10.372Z,25.10
2019-02-14T20:20:38.975Z,23.73
2019-02-14T20:23:07.996Z,24.43
2019-02-14T20:25:36.587Z,22.90
2019-02-14T20:28:05.220Z,24.40
2019-02-14T20:30:33.888Z,25.73
2019-02-14T20:33:04.658Z,23.77
2019-02-14T20:35:32.799Z,23.13
2019-02-14T20:38:01.462Z,23.17
2019-02-14T20:40:31.973Z,30.00
2019-02-14T20:43:00.364Z,27.50
2019-02-14T20:45:29.987Z,33.83
2019-02-14T20:47:58.569Z,25.83
2019-02-14T20:50:27.168Z,28.55
2019-02-14T20:52:55.759Z,30.87
2019-02-14T20:55:26.111Z,27.70
2019-02-14T20:57:54.702Z,27.60
2019-02-14T21:00:34.151Z,25.23
2019-02-14T21:03:02.766Z,31.87
2019-02-14T21:05:31.393Z,27.48
2019-02-14T21:07:59.974Z,27.87
2019-02-14T21:10:28.561Z,22.63
2019-02-14T21:12:57.162Z,27.60
2019-02-14T21:15:25.885Z,22.50
2019-02-14T21:17:54.504Z,24.03
2019-02-14T21:20:23.117Z,22.13
2019-02-14T21:22:51.774Z,27.40
2019-02-14T21:25:23.020Z,24.03
2019-02-14T21:27:50.675Z,25.17
2019-02-14T21:30:20.684Z,25.43
2019-02-14T21:32:49.630Z,24.47
2019-02-14T21:35:18.249Z,23.53
2019-02-14T21:37:47.131Z,23.80
2019-02-14T21:40:19.879Z,24.63
2019-02-14T21:42:48.860Z,22.33
2019-02-14T21:45:18.293Z,22.57
2019-02-14T21:47:47.071Z,22.63
2019-02-14T21:50:16.147Z,23.20
2019-02-14T21:52:44.765Z,24.03
2019-02-14T21:55:14.297Z,27.13
2019-02-14T21:57:42.981Z,21.87
2019-02-14T22:00:18.329Z,22.90
2019-02-14T22:02:46.928Z,22.60
2019-02-14T22:05:15.521Z,22.90
2019-02-14T22:07:44.194Z,24.07
2019-02-14T22:10:13.725Z,25.80
2019-02-14T22:12:43.445Z,25.90
2019-02-14T22:15:18.730Z,24.07
2019-02-14T22:17:47.413Z,22.97
2019-02-14T22:20:16.046Z,25.00
2019-02-14T22:22:44.652Z,28.43
2019-02-14T22:25:13.274Z,23.17
2019-02-14T22:27:41.862Z,21.73
2019-02-14T22:30:14.090Z,22.87
2019-02-14T22:32:42.685Z,25.63
2019-02-14T22:35:11.755Z,31.33
2019-02-14T22:37:40.385Z,22.25
2019-02-14T22:40:10.804Z,22.48
2019-02-14T22:42:46.710Z,24.63
2019-02-14T22:45:13.441Z,20.33
2019-02-14T22:47:41.807Z,23.80
2019-02-14T22:50:10.838Z,20.97
2019-02-14T22:52:39.436Z,20.03
2019-02-14T22:55:10.478Z,20.50
2019-02-14T22:57:39.110Z,20.90
2019-02-14T23:00:13.394Z,19.73
2019-02-14T23:02:41.983Z,16.20
2019-02-14T23:05:11.700Z,16.93
2019-02-14T23:07:40.284Z,17.50
2019-02-14T23:10:10.103Z,17.70
2019-02-14T23:12:38.689Z,21.83
2019-02-14T23:15:08.177Z,18.07
2019-02-14T23:17:36.765Z,19.83
2019-02-14T23:20:06.679Z,22.27
2019-02-14T23:22:35.268Z,19.53
2019-02-14T23:25:04.261Z,27.30
2019-02-14T23:27:32.847Z,30.40
2019-02-14T23:30:02.485Z,18.77
2019-02-14T23:32:31.133Z,19.87
2019-02-14T23:34:59.732Z,21.10
2019-02-14T23:37:28.361Z,21.60
2019-02-14T23:39:56.985Z,22.20
2019-02-14T23:42:25.658Z,21.73
2019-02-14T23:44:54.274Z,23.47
2019-02-14T23:47:22.861Z,26.47
2019-02-14T23:49:51.443Z,21.20
2019-02-14T23:52:20.034Z,22.27
2019-02-14T23:54:48.627Z,20.40
2019-02-14T23:57:17.208Z,23.50
2019-02-14T23:59:45.794Z,21.67
